sensor_id;sensor_type;location;lat;lon;timestamp;pressure;altitude;pressure_sealevel;temperature;humidity
62544;BME280;48597;49.030;1.822;2023-06-24T00:02:14;101774.09;;;25.78;44.51
62544;BME280;48597;49.030;1.822;2023-06-24T00:04:40;101782.78;;;25.78;44.61
62544;BME280;48597;49.030;1.822;2023-06-24T00:07:05;101769.59;;;25.77;44.31
62544;BME280;48597;49.030;1.822;2023-06-24T00:09:31;101776.66;;;25.76;44.45
62544;BME280;48597;49.030;1.822;2023-06-24T00:11:57;101772.97;;;25.75;44.32
62544;BME280;48597;49.030;1.822;2023-06-24T00:14:24;101772.16;;;25.75;44.47
62544;BME280;48597;49.030;1.822;2023-06-24T00:16:51;101771.34;;;25.74;44.20
62544;BME280;48597;49.030;1.822;2023-06-24T00:19:21;101763.94;;;25.73;44.26
62544;BME280;48597;49.030;1.822;2023-06-24T00:21:48;101773.88;;;25.72;44.25
62544;BME280;48597;49.030;1.822;2023-06-24T00:24:16;101767.31;;;25.72;44.18
62544;BME280;48597;49.030;1.822;2023-06-24T00:26:42;101770.19;;;25.72;44.34
62544;BME280;48597;49.030;1.822;2023-06-24T00:29:08;101768.59;;;25.71;44.19
62544;BME280;48597;49.030;1.822;2023-06-24T00:31:33;101769.88;;;25.70;44.14
62544;BME280;48597;49.030;1.822;2023-06-24T00:33:59;101768.28;;;25.69;44.26
62544;BME280;48597;49.030;1.822;2023-06-24T00:36:24;101763.78;;;25.68;44.19
62544;BME280;48597;49.030;1.822;2023-06-24T00:38:49;101765.84;;;25.67;44.36
62544;BME280;48597;49.030;1.822;2023-06-24T00:41:17;101772.44;;;25.68;44.25
62544;BME280;48597;49.030;1.822;2023-06-24T00:43:46;101765.03;;;25.67;44.28
62544;BME280;48597;49.030;1.822;2023-06-24T00:46:11;101774.19;;;25.65;44.08
62544;BME280;48597;49.030;1.822;2023-06-24T00:48:39;101772.56;;;25.64;44.07
62544;BME280;48597;49.030;1.822;2023-06-24T00:51:04;101770.47;;;25.65;43.98
62544;BME280;48597;49.030;1.822;2023-06-24T00:53:29;101763.91;;;25.64;44.06
62544;BME280;48597;49.030;1.822;2023-06-24T00:55:55;101761.00;;;25.64;43.91
62544;BME280;48597;49.030;1.822;2023-06-24T00:58:28;101763.09;;;25.63;43.92
62544;BME280;48597;49.030;1.822;2023-06-24T01:00:57;101758.59;;;25.62;44.23
62544;BME280;48597;49.030;1.822;2023-06-24T01:03:24;101764.38;;;25.62;44.05
62544;BME280;48597;49.030;1.822;2023-06-24T01:05:50;101763.56;;;25.62;43.69
62544;BME280;48597;49.030;1.822;2023-06-24T01:08:16;101758.59;;;25.62;43.77
62544;BME280;48597;49.030;1.822;2023-06-24T01:10:44;101756.97;;;25.61;43.97
62544;BME280;48597;49.030;1.822;2023-06-24T01:13:10;101760.31;;;25.60;43.81
62544;BME280;48597;49.030;1.822;2023-06-24T01:15:36;101755.78;;;25.59;43.78
62544;BME280;48597;49.030;1.822;2023-06-24T01:31:54;101751.78;;;25.56;43.54
62544;BME280;48597;49.030;1.822;2023-06-24T01:34:32;101751.00;;;25.56;43.64
62544;BME280;48597;49.030;1.822;2023-06-24T01:37:21;101745.69;;;25.54;43.45
62544;BME280;48597;49.030;1.822;2023-06-24T01:39:57;101739.09;;;25.54;43.34
62544;BME280;48597;49.030;1.822;2023-06-24T01:42:28;101737.47;;;25.53;43.50
62544;BME280;48597;49.030;1.822;2023-06-24T01:44:56;101747.41;;;25.52;43.27
62544;BME280;48597;49.030;1.822;2023-06-24T01:47:26;101743.38;;;25.49;43.22
62544;BME280;48597;49.030;1.822;2023-06-24T01:49:53;101734.72;;;25.49;43.47
62544;BME280;48597;49.030;1.822;2023-06-24T01:52:21;101736.81;;;25.49;43.10
62544;BME280;48597;49.030;1.822;2023-06-24T01:54:49;101737.28;;;25.47;43.14
62544;BME280;48597;49.030;1.822;2023-06-24T01:57:16;101736.47;;;25.47;43.07
62544;BME280;48597;49.030;1.822;2023-06-24T01:59:45;101734.38;;;25.47;42.95
62544;BME280;48597;49.030;1.822;2023-06-24T02:02:12;101736.47;;;25.47;42.94
62544;BME280;48597;49.030;1.822;2023-06-24T02:04:38;101737.72;;;25.46;43.11
62544;BME280;48597;49.030;1.822;2023-06-24T02:07:05;101741.13;;;25.44;42.92
62544;BME280;48597;49.030;1.822;2023-06-24T02:09:33;101740.31;;;25.44;42.90
62544;BME280;48597;49.030;1.822;2023-06-24T02:12:01;101746.09;;;25.44;43.08
62544;BME280;48597;49.030;1.822;2023-06-24T02:14:28;101739.63;;;25.40;43.09
62544;BME280;48597;49.030;1.822;2023-06-24T02:16:57;101733.84;;;25.40;42.88
62544;BME280;48597;49.030;1.822;2023-06-24T02:19:30;101728.56;;;25.38;42.88
62544;BME280;48597;49.030;1.822;2023-06-24T02:21:59;101732.38;;;25.35;42.92
62544;BME280;48597;49.030;1.822;2023-06-24T02:24:27;101734.91;;;25.33;42.65
62544;BME280;48597;49.030;1.822;2023-06-24T02:26:54;101737.00;;;25.33;42.92
62544;BME280;48597;49.030;1.822;2023-06-24T02:29:22;101735.41;;;25.32;42.73
62544;BME280;48597;49.030;1.822;2023-06-24T02:31:47;101730.91;;;25.31;42.60
62544;BME280;48597;49.030;1.822;2023-06-24T02:34:13;101737.94;;;25.30;42.58
62544;BME280;48597;49.030;1.822;2023-06-24T02:36:39;101735.06;;;25.30;42.63
62544;BME280;48597;49.030;1.822;2023-06-24T02:39:04;101738.41;;;25.28;42.62
62544;BME280;48597;49.030;1.822;2023-06-24T02:41:30;101731.03;;;25.27;42.52
62544;BME280;48597;49.030;1.822;2023-06-24T02:43:55;101739.34;;;25.25;42.53
62544;BME280;48597;49.030;1.822;2023-06-24T02:46:21;101740.63;;;25.24;42.45
62544;BME280;48597;49.030;1.822;2023-06-24T02:48:48;101745.59;;;25.23;42.45
62544;BME280;48597;49.030;1.822;2023-06-24T02:51:15;101741.09;;;25.22;42.46
62544;BME280;48597;49.030;1.822;2023-06-24T02:53:41;101742.00;;;25.19;42.63
62544;BME280;48597;49.030;1.822;2023-06-24T02:56:08;101732.09;;;25.20;42.54
62544;BME280;48597;49.030;1.822;2023-06-24T02:58:36;101740.44;;;25.18;42.43
62544;BME280;48597;49.030;1.822;2023-06-24T03:01:03;101740.44;;;25.18;42.34
62544;BME280;48597;49.030;1.822;2023-06-24T03:03:32;101737.19;;;25.16;42.37
62544;BME280;48597;49.030;1.822;2023-06-24T03:05:58;101732.69;;;25.15;42.30
62544;BME280;48597;49.030;1.822;2023-06-24T03:08:25;101731.09;;;25.14;42.23
62544;BME280;48597;49.030;1.822;2023-06-24T03:10:54;101733.16;;;25.14;42.30
62544;BME280;48597;49.030;1.822;2023-06-24T03:13:19;101728.66;;;25.13;42.23
62544;BME280;48597;49.030;1.822;2023-06-24T03:15:45;101728.31;;;25.11;42.21
62544;BME280;48597;49.030;1.822;2023-06-24T03:18:11;101730.41;;;25.10;42.08
62544;BME280;48597;49.030;1.822;2023-06-24T03:20:37;101731.66;;;25.09;42.11
62544;BME280;48597;49.030;1.822;2023-06-24T03:23:05;101725.09;;;25.09;42.00
62544;BME280;48597;49.030;1.822;2023-06-24T03:25:31;101728.44;;;25.07;42.08
62544;BME280;48597;49.030;1.822;2023-06-24T03:27:57;101727.63;;;25.07;42.21
62544;BME280;48597;49.030;1.822;2023-06-24T03:30:22;101733.09;;;25.05;42.10
62544;BME280;48597;49.030;1.822;2023-06-24T03:32:47;101743.81;;;25.04;41.91
62544;BME280;48597;49.030;1.822;2023-06-24T03:35:14;101738.06;;;25.04;42.00
62544;BME280;48597;49.030;1.822;2023-06-24T03:37:39;101743.47;;;25.02;41.82
62544;BME280;48597;49.030;1.822;2023-06-24T03:40:05;101740.59;;;25.02;41.77
62544;BME280;48597;49.030;1.822;2023-06-24T03:42:31;101741.88;;;25.01;41.81
62544;BME280;48597;49.030;1.822;2023-06-24T03:44:57;101740.25;;;25.00;41.81
62544;BME280;48597;49.030;1.822;2023-06-24T03:47:22;101740.72;;;24.99;41.61
62544;BME280;48597;49.030;1.822;2023-06-24T03:49:47;101747.75;;;24.98;41.92
62544;BME280;48597;49.030;1.822;2023-06-24T03:52:13;101746.47;;;24.99;41.90
62544;BME280;48597;49.030;1.822;2023-06-24T03:54:38;101746.94;;;24.97;41.96
62544;BME280;48597;49.030;1.822;2023-06-24T03:57:06;101754.78;;;24.97;41.80
62544;BME280;48597;49.030;1.822;2023-06-24T03:59:32;101747.41;;;24.96;41.49
62544;BME280;48597;49.030;1.822;2023-06-24T04:01:57;101749.47;;;24.95;41.78
62544;BME280;48597;49.030;1.822;2023-06-24T04:04:22;101746.25;;;24.93;41.73
62544;BME280;48597;49.030;1.822;2023-06-24T04:06:48;101741.75;;;24.92;41.67
62544;BME280;48597;49.030;1.822;2023-06-24T04:09:14;101737.25;;;24.91;41.61
62544;BME280;48597;49.030;1.822;2023-06-24T04:11:39;101744.28;;;24.90;41.72
62544;BME280;48597;49.030;1.822;2023-06-24T04:14:05;101743.47;;;24.89;41.51
62544;BME280;48597;49.030;1.822;2023-06-24T04:16:32;101745.56;;;24.89;41.47
62544;BME280;48597;49.030;1.822;2023-06-24T04:18:57;101743.94;;;24.88;41.53
62544;BME280;48597;49.030;1.822;2023-06-24T04:21:23;101744.41;;;24.86;41.53
62544;BME280;48597;49.030;1.822;2023-06-24T04:23:48;101753.88;;;24.87;41.53
62544;BME280;48597;49.030;1.822;2023-06-24T04:26:13;101751.44;;;24.85;41.46
62544;BME280;48597;49.030;1.822;2023-06-24T04:28:39;101746.94;;;24.84;41.48
62544;BME280;48597;49.030;1.822;2023-06-24T04:31:05;101751.09;;;24.83;41.39
62544;BME280;48597;49.030;1.822;2023-06-24T04:33:30;101749.84;;;24.84;41.48
62544;BME280;48597;49.030;1.822;2023-06-24T04:35:56;101750.28;;;24.83;41.46
62544;BME280;48597;49.030;1.822;2023-06-24T04:38:21;101752.38;;;24.82;41.43
62544;BME280;48597;49.030;1.822;2023-06-24T04:40:48;101748.69;;;24.82;41.69
62544;BME280;48597;49.030;1.822;2023-06-24T04:43:13;101758.59;;;24.81;41.53
62544;BME280;48597;49.030;1.822;2023-06-24T04:45:39;101754.09;;;24.80;41.51
62544;BME280;48597;49.030;1.822;2023-06-24T04:48:04;101755.41;;;24.79;41.45
62544;BME280;48597;49.030;1.822;2023-06-24T04:50:30;101763.25;;;24.78;41.45
62544;BME280;48597;49.030;1.822;2023-06-24T04:52:55;101762.44;;;24.78;41.41
62544;BME280;48597;49.030;1.822;2023-06-24T04:55:22;101760.81;;;24.77;41.43
62544;BME280;48597;49.030;1.822;2023-06-24T04:57:48;101757.13;;;24.76;41.47
62544;BME280;48597;49.030;1.822;2023-06-24T05:00:14;101757.59;;;24.75;41.31
62544;BME280;48597;49.030;1.822;2023-06-24T05:02:39;101760.47;;;24.75;41.34
62544;BME280;48597;49.030;1.822;2023-06-24T05:05:05;101763.34;;;24.75;41.40
62544;BME280;48597;49.030;1.822;2023-06-24T05:07:30;101763.00;;;24.73;41.46
62544;BME280;48597;49.030;1.822;2023-06-24T05:09:56;101758.50;;;24.72;41.56
62544;BME280;48597;49.030;1.822;2023-06-24T05:12:21;101758.50;;;24.72;41.58
62544;BME280;48597;49.030;1.822;2023-06-24T05:14:50;101755.63;;;24.72;41.75
62544;BME280;48597;49.030;1.822;2023-06-24T05:17:18;101757.69;;;24.71;41.54
62544;BME280;48597;49.030;1.822;2023-06-24T05:19:43;101762.66;;;24.71;41.77
62544;BME280;48597;49.030;1.822;2023-06-24T05:22:09;101751.13;;;24.71;41.72
62544;BME280;48597;49.030;1.822;2023-06-24T05:24:34;101755.28;;;24.70;41.86
62544;BME280;48597;49.030;1.822;2023-06-24T05:27:04;101759.78;;;24.71;41.85
62544;BME280;48597;49.030;1.822;2023-06-24T05:29:31;101751.59;;;24.69;41.93
62544;BME280;48597;49.030;1.822;2023-06-24T05:31:56;101757.34;;;24.69;41.97
62544;BME280;48597;49.030;1.822;2023-06-24T05:34:21;101758.16;;;24.70;41.94
62544;BME280;48597;49.030;1.822;2023-06-24T05:36:47;101756.53;;;24.69;42.04
62544;BME280;48597;49.030;1.822;2023-06-24T05:39:13;101755.72;;;24.68;42.04
62544;BME280;48597;49.030;1.822;2023-06-24T05:41:39;101759.44;;;24.69;42.04
62544;BME280;48597;49.030;1.822;2023-06-24T05:44:07;101758.63;;;24.68;42.17
62544;BME280;48597;49.030;1.822;2023-06-24T05:46:33;101757.81;;;24.68;42.19
62544;BME280;48597;49.030;1.822;2023-06-24T05:48:58;101758.63;;;24.68;42.22
62544;BME280;48597;49.030;1.822;2023-06-24T05:51:23;101760.69;;;24.68;42.31
62544;BME280;48597;49.030;1.822;2023-06-24T05:53:49;101754.94;;;24.68;42.45
62544;BME280;48597;49.030;1.822;2023-06-24T05:56:14;101751.25;;;24.67;42.39
62544;BME280;48597;49.030;1.822;2023-06-24T05:58:40;101757.81;;;24.68;42.50
62544;BME280;48597;49.030;1.822;2023-06-24T06:01:07;101761.50;;;24.68;42.54
62544;BME280;48597;49.030;1.822;2023-06-24T06:03:32;101766.81;;;24.70;42.71
62544;BME280;48597;49.030;1.822;2023-06-24T06:05:57;101763.13;;;24.69;42.65
62544;BME280;48597;49.030;1.822;2023-06-24T06:08:23;101758.16;;;24.70;42.75
62544;BME280;48597;49.030;1.822;2023-06-24T06:10:48;101759.44;;;24.69;42.81
62544;BME280;48597;49.030;1.822;2023-06-24T06:13:13;101752.75;;;24.72;42.94
62544;BME280;48597;49.030;1.822;2023-06-24T06:15:39;101758.50;;;24.72;42.79
62544;BME280;48597;49.030;1.822;2023-06-24T06:18:04;101757.69;;;24.71;42.99
62544;BME280;48597;49.030;1.822;2023-06-24T06:20:30;101764.28;;;24.72;43.10
62544;BME280;48597;49.030;1.822;2023-06-24T06:22:55;101755.63;;;24.72;43.29
62544;BME280;48597;49.030;1.822;2023-06-24T06:25:20;101760.13;;;24.73;43.33
62544;BME280;48597;49.030;1.822;2023-06-24T06:27:46;101758.03;;;24.73;43.32
62544;BME280;48597;49.030;1.822;2023-06-24T06:30:13;101760.47;;;24.75;43.39
62544;BME280;48597;49.030;1.822;2023-06-24T06:32:38;101752.63;;;24.75;43.49
62544;BME280;48597;49.030;1.822;2023-06-24T06:35:04;101755.50;;;24.75;43.55
62544;BME280;48597;49.030;1.822;2023-06-24T06:37:29;101760.47;;;24.75;43.50
62544;BME280;48597;49.030;1.822;2023-06-24T06:39:55;101760.47;;;24.75;43.49
62544;BME280;48597;49.030;1.822;2023-06-24T06:42:20;101746.41;;;24.77;43.39
62544;BME280;48597;49.030;1.822;2023-06-24T06:44:45;101757.94;;;24.77;43.61
62544;BME280;48597;49.030;1.822;2023-06-24T06:47:11;101760.34;;;24.78;43.79
62544;BME280;48597;49.030;1.822;2023-06-24T06:49:36;101760.34;;;24.78;44.16
62544;BME280;48597;49.030;1.822;2023-06-24T06:52:02;101755.41;;;24.79;43.99
62544;BME280;48597;49.030;1.822;2023-06-24T06:54:27;101765.63;;;24.80;43.99
62544;BME280;48597;49.030;1.822;2023-06-24T06:56:53;101766.94;;;24.79;44.06
62544;BME280;48597;49.030;1.822;2023-06-24T06:59:18;101758.59;;;24.81;44.05
62544;BME280;48597;49.030;1.822;2023-06-24T07:01:44;101761.03;;;24.82;44.36
62544;BME280;48597;49.030;1.822;2023-06-24T07:04:09;101748.22;;;24.83;44.77
62544;BME280;48597;49.030;1.822;2023-06-24T07:06:34;101753.53;;;24.85;45.02
62544;BME280;48597;49.030;1.822;2023-06-24T07:09:00;101756.41;;;24.85;45.36
62544;BME280;48597;49.030;1.822;2023-06-24T07:11:25;101750.63;;;24.85;45.72
62544;BME280;48597;49.030;1.822;2023-06-24T07:13:51;101746.03;;;24.87;45.89
62544;BME280;48597;49.030;1.822;2023-06-24T07:16:17;101743.47;;;24.89;46.23
62544;BME280;48597;49.030;1.822;2023-06-24T07:18:43;101750.06;;;24.90;46.54
62544;BME280;48597;49.030;1.822;2023-06-24T07:21:08;101748.78;;;24.91;46.50
62544;BME280;48597;49.030;1.822;2023-06-24T07:23:33;101750.88;;;24.90;46.49
62544;BME280;48597;49.030;1.822;2023-06-24T07:25:59;101754.56;;;24.91;46.63
62544;BME280;48597;49.030;1.822;2023-06-24T07:28:24;101746.72;;;24.91;46.98
62544;BME280;48597;49.030;1.822;2023-06-24T07:30:50;101754.09;;;24.92;47.08
62544;BME280;48597;49.030;1.822;2023-06-24T07:33:15;101750.75;;;24.94;47.07
62544;BME280;48597;49.030;1.822;2023-06-24T07:35:40;101752.38;;;24.95;47.39
62544;BME280;48597;49.030;1.822;2023-06-24T07:38:06;101750.28;;;24.96;47.49
62544;BME280;48597;49.030;1.822;2023-06-24T07:40:31;101749.47;;;24.95;47.21
62544;BME280;48597;49.030;1.822;2023-06-24T07:42:57;101746.94;;;24.97;47.39
62544;BME280;48597;49.030;1.822;2023-06-24T07:45:22;101742.78;;;24.98;47.26
62544;BME280;48597;49.030;1.822;2023-06-24T07:47:48;101746.47;;;24.99;47.51
62544;BME280;48597;49.030;1.822;2023-06-24T07:50:14;101744.41;;;24.99;47.56
62544;BME280;48597;49.030;1.822;2023-06-24T07:52:39;101753.41;;;25.01;47.48
62544;BME280;48597;49.030;1.822;2023-06-24T07:55:05;101757.09;;;25.02;47.38
62544;BME280;48597;49.030;1.822;2023-06-24T07:57:31;101752.94;;;25.03;47.53
62544;BME280;48597;49.030;1.822;2023-06-24T07:59:56;101745.09;;;25.03;47.62
62544;BME280;48597;49.030;1.822;2023-06-24T08:02:22;101735.16;;;25.04;47.62
62544;BME280;48597;49.030;1.822;2023-06-24T08:04:49;101735.47;;;25.06;47.60
62544;BME280;48597;49.030;1.822;2023-06-24T08:07:15;101731.31;;;25.07;47.66
62544;BME280;48597;49.030;1.822;2023-06-24T08:09:40;101735.81;;;25.08;47.82
62544;BME280;48597;49.030;1.822;2023-06-24T08:12:06;101730.88;;;25.09;47.79
62544;BME280;48597;49.030;1.822;2023-06-24T08:14:31;101734.91;;;25.11;47.66
62544;BME280;48597;49.030;1.822;2023-06-24T08:16:57;101721.28;;;25.12;47.93
62544;BME280;48597;49.030;1.822;2023-06-24T08:19:22;101720.81;;;25.13;47.69
62544;BME280;48597;49.030;1.822;2023-06-24T08:21:47;101718.75;;;25.14;47.79
62544;BME280;48597;49.030;1.822;2023-06-24T08:24:13;101726.94;;;25.15;47.79
62544;BME280;48597;49.030;1.822;2023-06-24T08:26:38;101717.47;;;25.15;47.69
62544;BME280;48597;49.030;1.822;2023-06-24T08:29:04;101715.38;;;25.15;47.83
62544;BME280;48597;49.030;1.822;2023-06-24T08:31:29;101717.00;;;25.16;47.77
62544;BME280;48597;49.030;1.822;2023-06-24T08:33:55;101712.84;;;25.17;47.85
62544;BME280;48597;49.030;1.822;2023-06-24T08:36:27;101718.94;;;25.19;47.68
62544;BME280;48597;49.030;1.822;2023-06-24T08:38:52;101706.59;;;25.19;47.65
62544;BME280;48597;49.030;1.822;2023-06-24T08:41:18;101706.13;;;25.20;47.83
62544;BME280;48597;49.030;1.822;2023-06-24T08:43:43;101706.47;;;25.22;47.71
62544;BME280;48597;49.030;1.822;2023-06-24T08:46:09;101706.47;;;25.22;47.84
62544;BME280;48597;49.030;1.822;2023-06-24T08:48:35;101703.91;;;25.24;47.74
62544;BME280;48597;49.030;1.822;2023-06-24T08:51:07;101711.28;;;25.25;47.87
62544;BME280;48597;49.030;1.822;2023-06-24T08:53:34;101704.72;;;25.25;47.70
62544;BME280;48597;49.030;1.822;2023-06-24T08:55:59;101711.63;;;25.27;47.71
62544;BME280;48597;49.030;1.822;2023-06-24T08:58:25;101707.47;;;25.28;47.72
62544;BME280;48597;49.030;1.822;2023-06-24T09:00:51;101707.00;;;25.30;47.71
62544;BME280;48597;49.030;1.822;2023-06-24T09:03:16;101707.00;;;25.30;47.66
62544;BME280;48597;49.030;1.822;2023-06-24T09:05:41;101704.44;;;25.32;47.81
62544;BME280;48597;49.030;1.822;2023-06-24T09:08:07;101703.66;;;25.32;47.78
62544;BME280;48597;49.030;1.822;2023-06-24T09:10:33;101693.69;;;25.33;47.65
62544;BME280;48597;49.030;1.822;2023-06-24T09:13:00;101694.50;;;25.33;47.76
62544;BME280;48597;49.030;1.822;2023-06-24T09:15:30;101694.84;;;25.35;47.80
62544;BME280;48597;49.030;1.822;2023-06-24T09:17:55;101692.78;;;25.36;47.58
62544;BME280;48597;49.030;1.822;2023-06-24T09:20:21;101682.84;;;25.37;47.78
62544;BME280;48597;49.030;1.822;2023-06-24T09:22:48;101688.16;;;25.38;47.73
62544;BME280;48597;49.030;1.822;2023-06-24T09:25:18;101686.88;;;25.39;47.87
62544;BME280;48597;49.030;1.822;2023-06-24T09:27:48;101677.75;;;25.41;47.74
62544;BME280;48597;49.030;1.822;2023-06-24T09:30:18;101675.66;;;25.41;47.60
62544;BME280;48597;49.030;1.822;2023-06-24T09:32:51;101675.19;;;25.43;47.71
62544;BME280;48597;49.030;1.822;2023-06-24T09:35:21;101674.72;;;25.44;47.70
62544;BME280;48597;49.030;1.822;2023-06-24T09:37:52;101670.53;;;25.45;47.65
62544;BME280;48597;49.030;1.822;2023-06-24T09:40:18;101668.97;;;25.44;47.97
62544;BME280;48597;49.030;1.822;2023-06-24T09:43:03;101664.75;;;25.45;47.73
62544;BME280;48597;49.030;1.822;2023-06-24T09:45:29;101660.59;;;25.46;47.82
62544;BME280;48597;49.030;1.822;2023-06-24T09:47:56;101660.94;;;25.48;47.74
62544;BME280;48597;49.030;1.822;2023-06-24T09:50:23;101653.09;;;25.49;47.86
62544;BME280;48597;49.030;1.822;2023-06-24T09:52:49;101656.31;;;25.51;47.55
62544;BME280;48597;49.030;1.822;2023-06-24T09:55:17;101649.28;;;25.52;47.64
62544;BME280;48597;49.030;1.822;2023-06-24T09:57:48;101653.78;;;25.53;47.72
62544;BME280;48597;49.030;1.822;2023-06-24T10:00:16;101650.88;;;25.53;47.65
62544;BME280;48597;49.030;1.822;2023-06-24T10:02:43;101645.44;;;25.55;47.89
62544;BME280;48597;49.030;1.822;2023-06-24T10:05:10;101627.66;;;25.56;47.96
62544;BME280;48597;49.030;1.822;2023-06-24T10:07:36;101628.47;;;25.57;47.72
62544;BME280;48597;49.030;1.822;2023-06-24T10:10:04;101631.66;;;25.59;47.88
62544;BME280;48597;49.030;1.822;2023-06-24T10:12:30;101628.75;;;25.59;47.86
62544;BME280;48597;49.030;1.822;2023-06-24T10:14:57;101618.81;;;25.60;47.81
62544;BME280;48597;49.030;1.822;2023-06-24T10:17:23;101627.50;;;25.60;47.70
62544;BME280;48597;49.030;1.822;2023-06-24T10:19:52;101618.38;;;25.61;48.21
62544;BME280;48597;49.030;1.822;2023-06-24T10:22:21;101609.25;;;25.63;47.79
62544;BME280;48597;49.030;1.822;2023-06-24T10:24:47;101615.38;;;25.65;47.97
62544;BME280;48597;49.030;1.822;2023-06-24T10:27:17;101614.09;;;25.66;47.93
62544;BME280;48597;49.030;1.822;2023-06-24T10:29:50;101612.00;;;25.67;47.92
62544;BME280;48597;49.030;1.822;2023-06-24T10:32:19;101602.88;;;25.68;48.02
62544;BME280;48597;49.030;1.822;2023-06-24T10:34:47;101595.81;;;25.69;48.00
62544;BME280;48597;49.030;1.822;2023-06-24T10:37:20;101599.00;;;25.71;47.92
62544;BME280;48597;49.030;1.822;2023-06-24T10:40:01;101591.97;;;25.72;47.88
62544;BME280;48597;49.030;1.822;2023-06-24T10:45:12;101593.09;;;25.75;47.96
62544;BME280;48597;49.030;1.822;2023-06-24T10:47:44;101589.75;;;25.76;47.63
62544;BME280;48597;49.030;1.822;2023-06-24T10:50:12;101582.69;;;25.77;47.47
62544;BME280;48597;49.030;1.822;2023-06-24T10:52:42;101590.88;;;25.79;47.45
62544;BME280;48597;49.030;1.822;2023-06-24T10:55:08;101584.63;;;25.80;47.27
62544;BME280;48597;49.030;1.822;2023-06-24T10:57:34;101575.50;;;25.82;47.45
62544;BME280;48597;49.030;1.822;2023-06-24T11:00:01;101586.56;;;25.83;47.22
62544;BME280;48597;49.030;1.822;2023-06-24T11:02:27;101579.50;;;25.84;47.39
62544;BME280;48597;49.030;1.822;2023-06-24T11:05:00;101579.81;;;25.86;47.11
62544;BME280;48597;49.030;1.822;2023-06-24T11:07:27;101578.53;;;25.87;46.99
62544;BME280;48597;49.030;1.822;2023-06-24T11:09:55;101570.69;;;25.88;47.18
62544;BME280;48597;49.030;1.822;2023-06-24T11:12:26;101562.69;;;25.92;47.06
62544;BME280;48597;49.030;1.822;2023-06-24T11:14:55;101562.81;;;25.88;47.00
62544;BME280;48597;49.030;1.822;2023-06-24T11:17:21;101565.56;;;25.92;47.20
62544;BME280;48597;49.030;1.822;2023-06-24T11:19:46;101560.13;;;25.94;47.01
62544;BME280;48597;49.030;1.822;2023-06-24T11:22:12;101558.03;;;25.94;47.29
62544;BME280;48597;49.030;1.822;2023-06-24T11:24:37;101555.50;;;25.96;46.97
62544;BME280;48597;49.030;1.822;2023-06-24T11:27:04;101543.44;;;25.98;46.94
62544;BME280;48597;49.030;1.822;2023-06-24T11:29:31;101546.66;;;26.00;46.77
62544;BME280;48597;49.030;1.822;2023-06-24T11:31:58;101541.66;;;26.01;46.68
62544;BME280;48597;49.030;1.822;2023-06-24T11:34:23;101539.13;;;26.03;46.57
62544;BME280;48597;49.030;1.822;2023-06-24T11:36:49;101545.22;;;26.05;46.51
62544;BME280;48597;49.030;1.822;2023-06-24T11:39:22;101534.00;;;26.07;46.52
62544;BME280;48597;49.030;1.822;2023-06-24T11:41:48;101528.53;;;26.09;46.39
62544;BME280;48597;49.030;1.822;2023-06-24T11:44:14;101531.44;;;26.09;46.44
62544;BME280;48597;49.030;1.822;2023-06-24T11:46:40;101532.25;;;26.09;46.62
62544;BME280;48597;49.030;1.822;2023-06-24T11:49:09;101529.97;;;26.13;46.57
62544;BME280;48597;49.030;1.822;2023-06-24T11:51:35;101525.00;;;26.14;46.38
62544;BME280;48597;49.030;1.822;2023-06-24T11:54:03;101524.53;;;26.15;46.24
62544;BME280;48597;49.030;1.822;2023-06-24T11:56:38;101520.34;;;26.16;46.10
62544;BME280;48597;49.030;1.822;2023-06-24T11:59:05;101509.59;;;26.17;46.04
62544;BME280;48597;49.030;1.822;2023-06-24T12:01:33;101519.06;;;26.17;46.29
62544;BME280;48597;49.030;1.822;2023-06-24T12:04:09;101517.31;;;26.20;45.86
62544;BME280;48597;49.030;1.822;2023-06-24T12:06:35;101515.22;;;26.20;45.88
62544;BME280;48597;49.030;1.822;2023-06-24T12:09:00;101510.25;;;26.21;45.90
62544;BME280;48597;49.030;1.822;2023-06-24T12:11:25;101507.38;;;26.21;46.10
62544;BME280;48597;49.030;1.822;2023-06-24T12:13:51;101504.78;;;26.23;45.75
62544;BME280;48597;49.030;1.822;2023-06-24T12:16:16;101503.50;;;26.24;46.23
62544;BME280;48597;49.030;1.822;2023-06-24T12:18:41;101499.31;;;26.25;45.89
62544;BME280;48597;49.030;1.822;2023-06-24T12:21:07;101490.97;;;26.27;46.03
62544;BME280;48597;49.030;1.822;2023-06-24T12:23:32;101488.09;;;26.27;45.93
62544;BME280;48597;49.030;1.822;2023-06-24T12:25:58;101488.09;;;26.27;46.10
62544;BME280;48597;49.030;1.822;2023-06-24T12:28:23;101481.06;;;26.28;46.26
62544;BME280;48597;49.030;1.822;2023-06-24T12:30:48;101479.28;;;26.30;45.99
62544;BME280;48597;49.030;1.822;2023-06-24T12:33:14;101475.59;;;26.30;46.16
62544;BME280;48597;49.030;1.822;2023-06-24T12:35:39;101473.53;;;26.30;46.02
62544;BME280;48597;49.030;1.822;2023-06-24T12:38:04;101482.50;;;26.32;46.18
62544;BME280;48597;49.030;1.822;2023-06-24T12:40:30;101465.97;;;26.33;46.13
62544;BME280;48597;49.030;1.822;2023-06-24T12:42:55;101470.47;;;26.34;46.01
62544;BME280;48597;49.030;1.822;2023-06-24T12:45:22;101471.28;;;26.35;45.85
62544;BME280;48597;49.030;1.822;2023-06-24T12:47:48;101466.31;;;26.35;46.19
62544;BME280;48597;49.030;1.822;2023-06-24T12:50:15;101464.69;;;26.34;46.07
62544;BME280;48597;49.030;1.822;2023-06-24T12:52:41;101460.00;;;26.37;45.68
62544;BME280;48597;49.030;1.822;2023-06-24T12:55:06;101462.41;;;26.38;45.82
62544;BME280;48597;49.030;1.822;2023-06-24T12:57:32;101455.84;;;26.38;45.56
62544;BME280;48597;49.030;1.822;2023-06-24T12:59:57;101456.63;;;26.38;45.83
62544;BME280;48597;49.030;1.822;2023-06-24T13:02:23;101447.50;;;26.40;45.78
62544;BME280;48597;49.030;1.822;2023-06-24T13:04:48;101446.22;;;26.41;46.05